createdAt,value
2018-05-03T00:02:18.416Z,15.40
2018-05-03T00:04:46.976Z,15.50
2018-05-03T00:07:15.939Z,15.50
2018-05-03T00:09:44.717Z,15.50
2018-05-03T00:12:13.256Z,15.60
2018-05-03T00:14:41.452Z,15.60
2018-05-03T00:17:10.045Z,15.50
2018-05-03T00:19:38.248Z,15.50
2018-05-03T00:22:06.468Z,15.60
2018-05-03T00:24:35.036Z,15.50
2018-05-03T00:27:04.008Z,15.50
2018-05-03T00:29:32.204Z,15.50
2018-05-03T00:32:01.281Z,15.60
2018-05-03T00:34:29.480Z,15.60
2018-05-03T00:36:58.448Z,15.60
2018-05-03T00:39:26.668Z,15.60
2018-05-03T00:41:55.523Z,15.60
2018-05-03T00:44:24.187Z,15.50
2018-05-03T00:46:52.880Z,15.50
2018-05-03T00:49:21.071Z,15.40
2018-05-03T00:51:54.567Z,15.30
2018-05-03T00:54:36.073Z,15.40
2018-05-03T00:57:04.351Z,15.30
2018-05-03T00:59:33.719Z,15.40
2018-05-03T01:02:02.144Z,15.40
2018-05-03T01:04:30.741Z,15.40
2018-05-03T01:06:59.080Z,15.30
2018-05-03T01:09:28.091Z,15.30
2018-05-03T01:11:56.861Z,15.30
2018-05-03T01:14:25.064Z,15.30
2018-05-03T01:16:53.263Z,15.30
2018-05-03T01:19:21.479Z,15.20
2018-05-03T01:21:49.683Z,15.20
2018-05-03T01:24:17.884Z,15.10
2018-05-03T01:26:46.347Z,15.10
2018-05-03T01:29:15.304Z,15.00
2018-05-03T01:31:43.901Z,15.00
2018-05-03T01:34:12.096Z,15.00
2018-05-03T01:36:40.899Z,14.90
2018-05-03T01:39:09.454Z,15.00
2018-05-03T01:41:38.223Z,15.00
2018-05-03T01:44:06.712Z,15.00
2018-05-03T01:46:35.684Z,15.00
2018-05-03T01:49:03.889Z,15.00
2018-05-03T01:51:32.175Z,15.00
2018-05-03T01:54:00.527Z,15.00
2018-05-03T01:56:29.039Z,15.10
2018-05-03T01:58:58.115Z,15.00
2018-05-03T02:01:26.312Z,15.00
2018-05-03T02:03:54.528Z,14.90
2018-05-03T02:06:22.743Z,14.90
2018-05-03T02:08:51.232Z,14.80
2018-05-03T02:11:20.056Z,14.80
2018-05-03T02:13:48.329Z,14.70
2018-05-03T02:16:16.857Z,14.80
2018-05-03T02:18:45.090Z,14.70
2018-05-03T02:21:13.287Z,14.70
2018-05-03T02:23:43.797Z,14.70
2018-05-03T02:26:12.765Z,14.90
2018-05-03T02:28:40.968Z,14.90
2018-05-03T02:31:09.628Z,14.80
2018-05-03T02:33:38.595Z,14.80
2018-05-03T02:36:07.764Z,14.80
2018-05-03T02:38:35.972Z,14.80
2018-05-03T02:41:04.476Z,14.80
2018-05-03T02:43:34.311Z,14.90
2018-05-03T02:46:02.857Z,14.90
2018-05-03T02:48:31.832Z,14.90
2018-05-03T02:51:00.091Z,14.90
2018-05-03T02:53:28.296Z,14.80
2018-05-03T02:55:57.739Z,14.70
2018-05-03T02:58:38.404Z,14.70
2018-05-03T03:01:24.368Z,14.60
2018-05-03T03:04:10.433Z,14.50
2018-05-03T03:06:56.762Z,14.40
2018-05-03T03:09:44.642Z,14.40
2018-05-03T03:26:14.234Z,14.20
2018-05-03T03:29:01.468Z,14.20
2018-05-03T03:31:48.074Z,14.10
2018-05-03T03:34:23.008Z,14.30
2018-05-03T03:37:26.297Z,14.30
2018-05-03T03:40:12.024Z,14.20
2018-05-03T03:56:16.690Z,14.10
2018-05-03T03:58:46.211Z,14.20
2018-05-03T04:01:15.172Z,14.10
2018-05-03T04:03:43.367Z,14.10
2018-05-03T04:06:11.612Z,14.10
2018-05-03T04:08:39.992Z,14.20
2018-05-03T04:11:08.535Z,14.20
2018-05-03T04:13:36.747Z,14.20
2018-05-03T04:16:05.010Z,14.10
2018-05-03T04:18:44.956Z,14.00
2018-05-03T04:21:24.973Z,14.00
2018-05-03T04:24:13.628Z,14.10
2018-05-03T04:26:42.774Z,13.90
2018-05-03T04:29:10.967Z,13.90
2018-05-03T04:31:40.268Z,13.90
2018-05-03T04:34:09.237Z,13.90
2018-05-03T04:36:38.080Z,13.90
2018-05-03T04:39:07.956Z,14.00
2018-05-03T04:41:37.739Z,14.00
2018-05-03T04:44:06.365Z,14.00
2018-05-03T04:46:35.060Z,13.90
2018-05-03T04:49:11.232Z,13.90
2018-05-03T04:51:39.961Z,13.90
2018-05-03T04:54:08.165Z,13.90
2018-05-03T04:56:37.292Z,13.90
2018-05-03T04:59:05.972Z,13.90
2018-05-03T05:01:38.996Z,13.80
2018-05-03T05:04:08.167Z,13.80
2018-05-03T05:06:36.547Z,13.80
2018-05-03T05:09:04.755Z,13.80
2018-05-03T05:11:33.280Z,13.80
2018-05-03T05:14:01.481Z,13.90
2018-05-03T05:16:35.235Z,13.70
2018-05-03T05:19:03.448Z,13.70
2018-05-03T05:21:31.648Z,13.70
2018-05-03T05:24:00.231Z,13.80
2018-05-03T05:26:29.190Z,13.90
2018-05-03T05:28:57.848Z,14.00
2018-05-03T05:31:26.082Z,13.90
2018-05-03T05:33:54.287Z,14.00
2018-05-03T05:36:22.577Z,14.00
2018-05-03T05:38:50.814Z,14.00
2018-05-03T05:41:23.227Z,13.90
2018-05-03T05:43:51.640Z,13.90
2018-05-03T05:46:20.151Z,14.00
2018-05-03T05:48:50.288Z,14.10
2018-05-03T05:51:18.558Z,14.10
2018-05-03T05:53:47.069Z,14.10
2018-05-03T05:56:15.723Z,14.00
2018-05-03T05:58:44.279Z,13.90
2018-05-03T06:01:12.485Z,14.00
2018-05-03T06:03:41.986Z,14.10
2018-05-03T06:06:10.189Z,14.10
2018-05-03T06:08:38.477Z,14.10
2018-05-03T06:11:06.760Z,14.10
2018-05-03T06:13:35.369Z,14.00
2018-05-03T06:16:03.581Z,14.00
2018-05-03T06:18:32.560Z,13.90
2018-05-03T06:21:00.776Z,14.10
2018-05-03T06:23:28.999Z,14.00
2018-05-03T06:25:57.616Z,13.90
2018-05-03T06:28:26.018Z,14.00
2018-05-03T06:30:54.975Z,13.90
2018-05-03T06:33:23.277Z,13.90
2018-05-03T06:35:52.588Z,14.00
2018-05-03T06:38:21.349Z,14.00
2018-05-03T06:40:49.921Z,14.00
2018-05-03T06:43:18.987Z,14.10
2018-05-03T06:45:47.252Z,14.20
2018-05-03T06:48:15.940Z,14.30
2018-05-03T06:50:44.465Z,14.40
2018-05-03T06:53:12.938Z,14.30
2018-05-03T06:55:41.858Z,14.10
2018-05-03T06:58:11.016Z,14.40
2018-05-03T07:00:43.448Z,14.40
2018-05-03T07:03:12.025Z,14.50
2018-05-03T07:05:40.996Z,14.50
2018-05-03T07:08:10.233Z,14.50
2018-05-03T07:10:38.888Z,14.60
2018-05-03T07:13:07.995Z,14.80
2018-05-03T07:15:36.968Z,14.80
2018-05-03T07:18:05.184Z,14.80
2018-05-03T07:20:33.644Z,14.90
2018-05-03T07:23:03.330Z,15.00
2018-05-03T07:25:31.529Z,14.90
2018-05-03T07:28:01.292Z,15.10
2018-05-03T07:30:29.940Z,15.10
2018-05-03T07:32:58.140Z,15.20
2018-05-03T07:35:26.888Z,15.30
2018-05-03T07:37:56.546Z,15.50
2018-05-03T07:40:24.764Z,15.40
2018-05-03T07:42:53.251Z,15.50
2018-05-03T07:45:22.844Z,15.70
2018-05-03T07:47:51.048Z,15.60
2018-05-03T07:50:19.800Z,15.80
2018-05-03T07:52:51.548Z,15.90
2018-05-03T07:55:19.840Z,15.90
2018-05-03T07:57:48.056Z,16.00
2018-05-03T08:00:16.328Z,16.10
2018-05-03T08:02:51.410Z,16.30
2018-05-03T08:05:20.384Z,16.40
2018-05-03T08:07:48.668Z,16.40
2018-05-03T08:10:20.589Z,16.50
2018-05-03T08:12:49.561Z,16.80
2018-05-03T08:15:17.772Z,16.80
2018-05-03T08:17:46.278Z,17.00
2018-05-03T08:20:14.488Z,17.20
2018-05-03T08:22:42.684Z,17.30
2018-05-03T08:25:10.902Z,17.50
2018-05-03T08:27:39.096Z,17.60
2018-05-03T08:30:07.301Z,17.80
2018-05-03T08:32:35.871Z,17.90
2018-05-03T08:35:07.973Z,18.00
2018-05-03T08:37:36.168Z,18.00
2018-05-03T08:40:04.376Z,18.20
2018-05-03T08:42:34.492Z,18.50
2018-05-03T08:45:03.008Z,18.50
2018-05-03T08:47:31.209Z,18.80
2018-05-03T08:50:00.177Z,19.10
2018-05-03T08:52:28.383Z,19.10
2018-05-03T08:54:56.588Z,19.20
2018-05-03T08:57:26.154Z,19.40
2018-05-03T08:59:55.631Z,19.80
2018-05-03T09:02:23.875Z,19.80
2018-05-03T09:04:52.640Z,19.90
2018-05-03T09:07:21.101Z,20.10
2018-05-03T09:09:50.216Z,20.10
2018-05-03T09:12:18.468Z,20.10
2018-05-03T09:14:47.443Z,20.30
2018-05-03T09:17:15.649Z,20.20
2018-05-03T09:19:45.150Z,20.30
2018-05-03T09:22:14.117Z,20.30
2018-05-03T09:24:42.324Z,20.30
2018-05-03T09:27:11.816Z,20.20
2018-05-03T09:29:40.012Z,20.20
2018-05-03T09:32:08.504Z,20.10
2018-05-03T09:34:37.408Z,20.10
2018-05-03T09:37:06.072Z,20.10
2018-05-03T09:39:35.366Z,20.10
2018-05-03T09:42:04.241Z,20.10
2018-05-03T09:44:32.563Z,20.00
2018-05-03T09:47:00.764Z,20.00
2018-05-03T09:49:29.744Z,19.90
2018-05-03T09:51:58.155Z,19.90
2018-05-03T09:54:26.530Z,19.90
2018-05-03T09:56:54.795Z,19.80
2018-05-03T09:59:23.168Z,19.80
2018-05-03T10:01:51.356Z,19.80
2018-05-03T10:04:19.876Z,19.80
2018-05-03T10:06:49.308Z,19.80
2018-05-03T10:09:17.518Z,19.80
2018-05-03T10:11:46.128Z,19.80
2018-05-03T10:14:14.340Z,19.70
2018-05-03T10:16:42.544Z,19.80
2018-05-03T10:19:10.763Z,19.70
2018-05-03T10:21:40.288Z,19.80
2018-05-03T10:24:09.252Z,19.70
2018-05-03T10:26:37.461Z,19.70
2018-05-03T10:29:05.778Z,19.80
2018-05-03T10:31:34.963Z,19.70
2018-05-03T10:34:03.265Z,19.70
2018-05-03T10:36:31.524Z,19.80
2018-05-03T10:39:00.131Z,19.80
2018-05-03T10:41:28.450Z,19.80
2018-05-03T10:44:05.082Z,19.90
2018-05-03T10:46:33.288Z,19.80
2018-05-03T10:49:02.273Z,19.70
2018-05-03T10:51:30.472Z,19.70
2018-05-03T10:53:58.685Z,19.80
2018-05-03T10:56:27.347Z,19.70
2018-05-03T10:58:56.091Z,19.80
2018-05-03T11:01:24.288Z,19.90
2018-05-03T11:03:53.413Z,19.90
2018-05-03T11:08:55.615Z,20.00
2018-05-03T11:11:24.424Z,20.00
2018-05-03T11:13:52.596Z,20.00
2018-05-03T11:16:21.405Z,20.10
2018-05-03T11:18:49.603Z,20.10
2018-05-03T11:21:18.564Z,20.10
2018-05-03T11:23:46.792Z,20.10
2018-05-03T11:26:14.988Z,20.20
2018-05-03T11:28:43.493Z,20.30
2018-05-03T11:31:12.617Z,20.40
2018-05-03T11:33:41.585Z,20.20
2018-05-03T11:36:10.317Z,20.20
2018-05-03T11:38:39.085Z,20.30
2018-05-03T11:41:08.200Z,20.40
2018-05-03T11:43:38.499Z,20.50
2018-05-03T11:46:07.784Z,20.50
2018-05-03T11:48:35.989Z,20.50
2018-05-03T11:51:04.808Z,20.60
2018-05-03T11:53:34.294Z,20.70
2018-05-03T11:56:04.003Z,20.70
2018-05-03T11:58:46.816Z,20.80
2018-05-03T12:01:15.779Z,20.80
2018-05-03T12:03:45.491Z,20.90
2018-05-03T12:06:15.273Z,20.90
2018-05-03T12:08:44.012Z,20.90
2018-05-03T12:11:13.087Z,21.00
2018-05-03T12:13:41.609Z,21.00
2018-05-03T12:16:10.864Z,21.10
2018-05-03T12:18:39.364Z,21.20
2018-05-03T12:21:08.187Z,21.20
2018-05-03T12:23:36.396Z,21.20
2018-05-03T12:26:04.588Z,21.20
2018-05-03T12:28:33.561Z,21.20
2018-05-03T12:31:02.873Z,21.20
2018-05-03T12:33:31.772Z,21.30
2018-05-03T12:36:00.372Z,21.40
2018-05-03T12:38:28.576Z,21.40
2018-05-03T12:40:56.772Z,21.40
2018-05-03T12:43:25.992Z,21.40
2018-05-03T12:45:54.451Z,21.50
2018-05-03T12:48:22.653Z,21.50
2018-05-03T12:50:50.852Z,21.50
2018-05-03T12:53:19.539Z,21.60
2018-05-03T12:55:48.700Z,21.60
2018-05-03T12:58:16.900Z,21.60
2018-05-03T13:00:46.491Z,21.60
2018-05-03T13:03:15.520Z,21.60
2018-05-03T13:05:44.560Z,21.60
2018-05-03T13:08:12.896Z,21.60
2018-05-03T13:10:41.369Z,21.60
2018-05-03T13:13:10.177Z,21.60
2018-05-03T13:15:38.375Z,21.70
2018-05-03T13:18:06.692Z,21.70
2018-05-03T13:20:34.905Z,21.70
2018-05-03T13:23:03.681Z,21.70
2018-05-03T13:25:32.276Z,21.70
2018-05-03T13:28:01.295Z,21.70
2018-05-03T13:30:30.263Z,21.70
2018-05-03T13:32:58.466Z,21.80
2018-05-03T13:35:27.128Z,21.80
2018-05-03T13:37:55.341Z,21.80
2018-05-03T13:40:23.784Z,21.80
2018-05-03T13:42:52.040Z,21.70
2018-05-03T13:45:20.477Z,21.80
2018-05-03T13:47:49.858Z,21.80
2018-05-03T13:50:18.818Z,21.70
2018-05-03T13:52:47.086Z,21.70
2018-05-03T13:55:15.504Z,21.70
2018-05-03T13:57:44.807Z,21.70
2018-05-03T14:00:14.116Z,21.70
2018-05-03T14:02:43.380Z,21.70
2018-05-03T14:05:11.585Z,21.70
2018-05-03T14:07:40.976Z,21.70
2018-05-03T14:10:10.285Z,21.70
2018-05-03T14:12:39.843Z,21.80
2018-05-03T14:15:08.044Z,21.80
2018-05-03T14:17:36.246Z,21.90
2018-05-03T14:20:04.476Z,22.10
2018-05-03T14:22:32.672Z,22.20
2018-05-03T14:25:00.869Z,22.30
2018-05-03T14:27:29.640Z,22.50
2018-05-03T14:29:57.839Z,22.60
2018-05-03T14:32:26.110Z,22.60
2018-05-03T14:34:54.311Z,22.60
2018-05-03T14:37:22.742Z,22.50
2018-05-03T14:39:51.848Z,22.60
2018-05-03T14:42:20.963Z,22.60
2018-05-03T14:44:50.493Z,22.70
2018-05-03T14:47:18.695Z,22.70
2018-05-03T14:49:46.904Z,22.70
2018-05-03T14:52:15.578Z,22.70
2018-05-03T14:54:43.756Z,22.80
2018-05-03T14:57:15.817Z,22.90
2018-05-03T14:59:44.854Z,22.90
2018-05-03T15:02:13.823Z,22.70
2018-05-03T15:04:42.025Z,22.70
2018-05-03T15:07:11.309Z,22.70
2018-05-03T15:09:43.260Z,22.60
2018-05-03T15:12:11.568Z,22.60
2018-05-03T15:14:40.532Z,22.60
2018-05-03T15:17:08.731Z,22.60
2018-05-03T15:19:36.952Z,22.50
2018-05-03T15:22:05.151Z,22.40
2018-05-03T15:24:33.421Z,22.40
2018-05-03T15:27:02.591Z,22.30
2018-05-03T15:29:30.808Z,22.30
2018-05-03T15:31:59.540Z,22.20
2018-05-03T15:34:27.742Z,22.10
2018-05-03T15:36:57.064Z,22.10
2018-05-03T15:39:25.780Z,22.10
2018-05-03T15:41:55.479Z,22.00
2018-05-03T15:44:23.977Z,22.00
2018-05-03T15:46:52.932Z,22.00
2018-05-03T15:49:21.138Z,22.00
2018-05-03T15:51:49.372Z,21.90
2018-05-03T15:54:18.073Z,21.90
2018-05-03T15:56:46.688Z,21.80
2018-05-03T15:59:16.514Z,21.70
2018-05-03T16:01:45.850Z,21.70
2018-05-03T16:04:14.704Z,21.70
2018-05-03T16:06:44.272Z,21.70
2018-05-03T16:09:12.445Z,21.60
2018-05-03T16:11:40.722Z,21.60
2018-05-03T16:14:09.320Z,21.60
2018-05-03T16:16:37.625Z,21.50
2018-05-03T16:19:06.589Z,21.50
2018-05-03T16:21:34.799Z,21.50
2018-05-03T16:24:03.076Z,21.50
2018-05-03T16:26:31.277Z,21.50
2018-05-03T16:28:59.697Z,21.40
2018-05-03T16:31:28.447Z,21.40
2018-05-03T16:33:56.648Z,21.30
2018-05-03T16:36:26.857Z,21.20
2018-05-03T16:38:55.056Z,21.20
2018-05-03T16:41:23.257Z,21.20
2018-05-03T16:43:51.900Z,21.20
2018-05-03T16:46:20.178Z,21.20
2018-05-03T16:48:48.681Z,21.20
2018-05-03T16:51:16.895Z,21.10
2018-05-03T16:53:45.168Z,21.10
2018-05-03T16:56:13.620Z,21.10
2018-05-03T16:58:41.852Z,21.00
2018-05-03T17:01:10.567Z,21.00
2018-05-03T17:03:38.893Z,21.00
2018-05-03T17:06:07.858Z,21.00
2018-05-03T17:08:36.322Z,21.00
2018-05-03T17:11:04.931Z,20.90
2018-05-03T17:13:34.304Z,20.80
2018-05-03T17:16:03.311Z,20.80
2018-05-03T17:18:31.532Z,20.70
2018-05-03T17:21:00.184Z,20.80
2018-05-03T17:23:28.656Z,20.70
2018-05-03T17:25:56.860Z,20.70
2018-05-03T17:28:25.839Z,20.60
2018-05-03T17:30:54.507Z,20.60
2018-05-03T17:33:22.721Z,20.60
2018-05-03T17:35:52.010Z,20.60
2018-05-03T17:38:20.684Z,20.50
2018-05-03T17:40:48.884Z,20.60
2018-05-03T17:43:17.664Z,20.50
2018-05-03T17:45:47.140Z,20.40
2018-05-03T17:48:15.353Z,20.50
2018-05-03T17:50:44.774Z,20.30
2018-05-03T17:53:13.028Z,20.30
2018-05-03T17:55:43.519Z,20.30
2018-05-03T17:58:12.543Z,20.30
2018-05-03T18:00:45.035Z,20.20
2018-05-03T18:03:16.035Z,20.10
2018-05-03T18:05:44.212Z,20.10
2018-05-03T18:08:13.145Z,20.10
2018-05-03T18:10:43.471Z,20.10
2018-05-03T18:13:11.936Z,20.10
2018-05-03T18:15:40.149Z,20.10
2018-05-03T18:18:09.005Z,20.00
2018-05-03T18:20:37.978Z,19.90
2018-05-03T18:23:06.212Z,19.90
2018-05-03T18:25:34.836Z,19.90
2018-05-03T18:28:03.047Z,19.90
2018-05-03T18:30:32.443Z,19.90
2018-05-03T18:33:02.438Z,19.80
2018-05-03T18:35:32.459Z,19.80
2018-05-03T18:38:00.668Z,19.80
2018-05-03T18:40:29.460Z,19.60
2018-05-03T18:42:58.255Z,19.50
2018-05-03T18:45:26.810Z,19.60
2018-05-03T18:47:57.467Z,19.60
2018-05-03T18:50:26.092Z,19.60
2018-05-03T18:52:54.322Z,19.60
2018-05-03T18:55:24.028Z,19.40
2018-05-03T18:57:53.000Z,19.40
2018-05-03T19:00:21.574Z,19.40
2018-05-03T19:02:49.772Z,19.40
2018-05-03T19:05:17.973Z,19.30
2018-05-03T19:07:46.420Z,19.20
2018-05-03T19:10:15.212Z,19.30
2018-05-03T19:12:43.534Z,19.30
2018-05-03T19:15:14.661Z,19.20
2018-05-03T19:17:43.636Z,19.20
2018-05-03T19:20:11.836Z,19.20
2018-05-03T19:22:40.064Z,19.10
2018-05-03T19:25:08.264Z,19.10
2018-05-03T19:27:36.720Z,19.10
2018-05-03T19:30:04.932Z,19.10
2018-05-03T19:32:34.285Z,19.00
2018-05-03T19:35:09.748Z,19.00
2018-05-03T19:37:37.952Z,19.00
2018-05-03T19:40:06.736Z,19.00
2018-05-03T19:42:35.769Z,19.00
2018-05-03T19:45:04.285Z,19.00
2018-05-03T19:47:33.626Z,18.90
2018-05-03T19:50:02.591Z,18.80
2018-05-03T19:52:30.803Z,18.80
2018-05-03T19:55:06.389Z,18.80
2018-05-03T19:57:34.593Z,18.80
2018-05-03T20:00:03.236Z,18.80
2018-05-03T20:02:31.851Z,18.80
2018-05-03T20:05:00.051Z,18.80
2018-05-03T20:07:28.736Z,18.80
2018-05-03T20:09:57.422Z,18.80
2018-05-03T20:12:26.545Z,18.70
2018-05-03T20:14:54.841Z,18.70
2018-05-03T20:17:23.041Z,18.60
2018-05-03T20:19:51.571Z,18.60
2018-05-03T20:22:20.559Z,18.60
2018-05-03T20:24:48.822Z,18.50
2018-05-03T20:27:17.179Z,18.60
2018-05-03T20:29:45.879Z,18.60
2018-05-03T20:32:14.479Z,18.60
2018-05-03T20:34:42.693Z,18.50
2018-05-03T20:37:11.315Z,18.50
2018-05-03T20:39:39.803Z,18.50
2018-05-03T20:42:08.309Z,18.40
2018-05-03T20:44:37.586Z,18.40
2018-05-03T20:47:05.896Z,18.40
2018-05-03T20:49:34.860Z,18.20
2018-05-03T20:52:04.682Z,18.20
2018-05-03T20:54:33.170Z,18.30
2018-05-03T20:57:02.660Z,18.30
2018-05-03T20:59:31.275Z,18.30
2018-05-03T21:02:00.258Z,18.30
2018-05-03T21:04:28.997Z,18.30
2018-05-03T21:06:57.808Z,18.20
2018-05-03T21:09:26.009Z,18.20
2018-05-03T21:11:54.809Z,18.10
2018-05-03T21:14:23.017Z,18.10
2018-05-03T21:16:52.707Z,18.10
2018-05-03T21:19:22.049Z,18.10
2018-05-03T21:21:50.252Z,18.10
2018-05-03T21:24:20.071Z,18.10
2018-05-03T21:26:48.266Z,18.00
2018-05-03T21:29:16.605Z,18.00
2018-05-03T21:31:46.004Z,18.00
2018-05-03T21:34:14.220Z,18.00
2018-05-03T21:36:43.444Z,17.90
2018-05-03T21:39:11.648Z,17.90
2018-05-03T21:41:40.722Z,17.90
2018-05-03T21:44:09.340Z,17.90
2018-05-03T21:46:37.969Z,17.90
2018-05-03T21:49:06.939Z,17.80
2018-05-03T21:51:35.447Z,17.80
2018-05-03T21:54:03.653Z,17.90
2018-05-03T21:56:32.820Z,17.80
2018-05-03T21:59:16.193Z,17.80
2018-05-03T22:01:50.428Z,17.70
2018-05-03T22:04:18.907Z,17.80
2018-05-03T22:06:47.935Z,17.80
2018-05-03T22:09:17.668Z,17.80
2018-05-03T22:11:47.260Z,17.80
2018-05-03T22:14:15.473Z,17.80
2018-05-03T22:16:43.676Z,17.70
2018-05-03T22:19:11.950Z,17.70
2018-05-03T22:21:40.190Z,17.70
2018-05-03T22:24:08.401Z,17.70
2018-05-03T22:26:36.585Z,17.70
2018-05-03T22:29:05.380Z,17.80
2018-05-03T22:31:34.070Z,17.70
2018-05-03T22:34:02.541Z,17.70
2018-05-03T22:36:31.600Z,17.70
2018-05-03T22:39:00.547Z,17.70
2018-05-03T22:41:37.493Z,17.70
2018-05-03T22:44:07.115Z,17.70
2018-05-03T22:46:36.035Z,17.60
2018-05-03T22:49:04.997Z,17.70
2018-05-03T22:51:33.191Z,17.70
2018-05-03T22:54:01.782Z,17.60
2018-05-03T22:56:30.646Z,17.70
2018-05-03T22:58:58.860Z,17.60
2018-05-03T23:01:28.177Z,17.60
2018-05-03T23:03:56.389Z,17.60
2018-05-03T23:06:32.288Z,17.50
2018-05-03T23:09:01.256Z,17.50
2018-05-03T23:11:29.851Z,17.50
2018-05-03T23:13:58.065Z,17.50
2018-05-03T23:16:26.409Z,17.50
2018-05-03T23:18:54.973Z,17.50
2018-05-03T23:21:23.435Z,17.60
2018-05-03T23:23:51.637Z,17.50
2018-05-03T23:26:20.121Z,17.50
2018-05-03T23:28:48.599Z,17.50
2018-05-03T23:31:17.252Z,17.50
2018-05-03T23:33:45.460Z,17.50
2018-05-03T23:36:13.904Z,17.50
2018-05-03T23:38:42.110Z,17.50
2018-05-03T23:41:10.312Z,17.40
2018-05-03T23:43:39.020Z,17.40
2018-05-03T23:46:08.265Z,17.40
2018-05-03T23:48:36.461Z,17.40
2018-05-03T23:51:04.673Z,17.40
2018-05-03T23:53:32.899Z,17.30
2018-05-03T23:56:01.596Z,17.30
2018-05-03T23:58:29.807Z,17.30
